Main page
METAR-TAF:

METAR-TAF

Airports :

Hope Aerodrome

Hope, British Columbia, Canada

latitude: 49-22N, longitude: 121-29W, elevation: 39 m

Current weather observation

The report was made 50 minutes ago, at 02:00 UTC
Calm wind
Temperature 15°C
Humidity 77%
Pressure 1017 hPa
Visibility: 14.5 km
Broken clouds at a height of 5500 ft
Overcast at a height of 7300 ft

METAR: CYHE 240200Z AUTO 00000KT 9SM BKN055 OVC073 15/11 A3003 RMK SLP170

Time: 19:50 (02:50 UTC)


TAF: missing

Weather observations and forecasts of more than 4000 airports (METAR and TAF reports).

The available stations are represented by yellow and red dots on the map.

Hover mouse over dot to see the name of the station.

Then click to see weather observations and forecasts.

To change the map : click on the green buttons with a black cross to zoom in, on the green button with a dash to zoom out, or on the green arrows for adjacent maps.


METAR-TAF: